createdAt,value
2023-02-12T00:00:07.036Z,36.45
2023-02-12T00:02:41.975Z,36.30
2023-02-12T00:05:08.744Z,34.90
2023-02-12T00:07:35.332Z,35.75
2023-02-12T00:10:02.048Z,35.65
2023-02-12T00:12:28.687Z,35.65
2023-02-12T00:15:08.330Z,36.67
2023-02-12T00:17:35.241Z,35.47
2023-02-12T00:20:01.949Z,35.53
2023-02-12T00:22:29.573Z,36.25
2023-02-12T00:24:56.881Z,35.67
2023-02-12T00:27:24.115Z,35.90
2023-02-12T00:29:50.879Z,35.30
2023-02-12T00:32:20.658Z,35.05
2023-02-12T00:34:47.607Z,35.92
2023-02-12T00:37:15.972Z,34.60
2023-02-12T00:39:42.857Z,34.08
2023-02-12T00:42:11.008Z,37.03
2023-02-12T00:44:37.577Z,36.95
2023-02-12T00:47:05.458Z,35.95
2023-02-12T00:49:35.462Z,36.30
2023-02-12T00:52:03.567Z,35.05
2023-02-12T00:54:31.764Z,35.63
2023-02-12T00:56:59.024Z,35.40
2023-02-12T00:59:29.798Z,35.20
2023-02-12T01:01:56.929Z,35.53
2023-02-12T01:04:24.425Z,35.50
2023-02-12T01:06:51.200Z,36.47
2023-02-12T01:09:19.033Z,37.33
2023-02-12T01:11:47.876Z,36.20
2023-02-12T01:14:14.474Z,35.35
2023-02-12T01:16:41.297Z,35.38
2023-02-12T01:19:07.989Z,34.85
2023-02-12T01:21:35.271Z,35.17
2023-02-12T01:24:02.695Z,35.72
2023-02-12T01:26:31.105Z,36.15
2023-02-12T01:29:01.477Z,36.40
2023-02-12T01:31:31.643Z,35.13
2023-02-12T01:33:59.831Z,34.38
2023-02-12T01:36:28.997Z,34.67
2023-02-12T01:38:57.850Z,34.53
2023-02-12T01:41:32.489Z,33.85
2023-02-12T01:44:13.735Z,34.00
2023-02-12T01:46:40.654Z,34.53
2023-02-12T01:49:14.339Z,33.65
2023-02-12T01:51:43.114Z,33.53
2023-02-12T01:54:13.375Z,35.17
2023-02-12T01:56:42.108Z,34.20
2023-02-12T01:59:09.067Z,32.78
2023-02-12T02:01:35.932Z,33.30
2023-02-12T02:04:07.249Z,32.50
2023-02-12T02:06:39.711Z,33.60
2023-02-12T02:09:06.531Z,35.83
2023-02-12T02:11:51.651Z,33.28
2023-02-12T02:14:34.057Z,33.90
2023-02-12T02:17:24.466Z,32.55
2023-02-12T02:20:00.004Z,33.13
2023-02-12T02:22:36.099Z,33.67
2023-02-12T02:25:23.950Z,31.55
2023-02-12T02:27:50.519Z,33.47
2023-02-12T02:30:26.129Z,32.88
2023-02-12T02:33:07.833Z,32.90
2023-02-12T02:35:43.412Z,34.80
2023-02-12T02:38:45.491Z,34.42
2023-02-12T02:41:28.572Z,34.10
2023-02-12T02:43:56.063Z,33.53
2023-02-12T02:46:25.488Z,34.55
2023-02-12T02:49:02.061Z,34.70
2023-02-12T02:51:41.176Z,35.92
2023-02-12T02:54:16.443Z,35.15
2023-02-12T02:56:47.751Z,35.08
2023-02-12T02:59:24.125Z,35.00
2023-02-12T03:02:01.673Z,34.95
2023-02-12T03:04:45.870Z,34.97
2023-02-12T03:07:41.749Z,34.33
2023-02-12T03:10:20.549Z,35.53
2023-02-12T03:13:07.403Z,35.00
2023-02-12T03:15:52.484Z,36.10
2023-02-12T03:18:30.654Z,36.83
2023-02-12T03:21:03.236Z,35.72
2023-02-12T03:23:55.436Z,35.05
2023-02-12T03:26:27.387Z,36.05
2023-02-12T03:28:53.973Z,35.97
2023-02-12T03:31:38.962Z,37.45
2023-02-12T03:34:26.880Z,35.90
2023-02-12T03:36:57.079Z,38.22
2023-02-12T03:39:45.413Z,36.63
2023-02-12T03:42:38.268Z,36.95
2023-02-12T03:45:19.978Z,37.70
2023-02-12T03:47:51.539Z,38.00
2023-02-12T03:50:44.234Z,38.45
2023-02-12T03:53:11.043Z,37.00
2023-02-12T03:55:42.351Z,37.15
2023-02-12T03:58:12.562Z,37.55
2023-02-12T04:00:39.691Z,38.70
2023-02-12T04:03:07.649Z,38.40
2023-02-12T04:05:34.279Z,39.13
2023-02-12T04:08:04.252Z,38.70
2023-02-12T04:11:01.975Z,38.58
2023-02-12T04:13:49.964Z,36.72
2023-02-12T04:16:40.532Z,39.70
2023-02-12T04:19:12.688Z,38.38
2023-02-12T04:22:05.420Z,37.30
2023-02-12T04:24:44.887Z,38.03
2023-02-12T04:27:39.767Z,39.28
2023-02-12T04:30:40.615Z,38.88
2023-02-12T04:33:11.770Z,38.20
2023-02-12T04:35:51.438Z,37.55
2023-02-12T04:40:51.764Z,37.58
2023-02-12T04:43:36.507Z,38.17
2023-02-12T04:46:05.646Z,38.38
2023-02-12T04:48:32.327Z,36.92
2023-02-12T04:50:58.880Z,37.92
2023-02-12T04:53:25.474Z,38.38
2023-02-12T04:55:52.229Z,37.60
2023-02-12T04:58:19.316Z,39.75
2023-02-12T05:00:45.853Z,39.65
2023-02-12T05:03:12.479Z,38.03
2023-02-12T05:05:39.131Z,37.38
2023-02-12T05:08:05.798Z,38.95
2023-02-12T05:10:32.369Z,38.28
2023-02-12T05:12:59.003Z,38.35
2023-02-12T05:15:25.584Z,37.92
2023-02-12T05:17:52.281Z,37.97
2023-02-12T05:20:19.033Z,37.33
2023-02-12T05:22:45.661Z,39.28
2023-02-12T05:25:12.316Z,36.97
2023-02-12T05:27:38.987Z,38.20
2023-02-12T05:30:06.243Z,37.08
2023-02-12T05:32:32.889Z,36.85
2023-02-12T05:34:59.400Z,39.42
2023-02-12T05:37:26.299Z,38.47
2023-02-12T05:39:53.852Z,36.35
2023-02-12T05:42:20.517Z,36.38
2023-02-12T05:44:47.077Z,36.08
2023-02-12T05:47:13.840Z,37.10
2023-02-12T05:49:40.670Z,35.97
2023-02-12T05:52:07.371Z,36.97
2023-02-12T05:54:34.027Z,37.85
2023-02-12T05:57:00.644Z,36.78
2023-02-12T05:59:27.245Z,36.72
2023-02-12T06:01:53.933Z,38.13
2023-02-12T06:04:26.265Z,37.60
2023-02-12T06:06:54.035Z,36.60
2023-02-12T06:09:20.627Z,38.95
2023-02-12T06:11:47.317Z,37.08
2023-02-12T06:14:19.334Z,38.15
2023-02-12T06:16:48.335Z,36.47
2023-02-12T06:19:15.735Z,35.75
2023-02-12T06:21:42.583Z,37.05
2023-02-12T06:24:13.675Z,39.00
2023-02-12T06:26:40.634Z,35.83
2023-02-12T06:29:07.332Z,37.35
2023-02-12T06:31:36.706Z,38.53
2023-02-12T06:34:06.392Z,36.67
2023-02-12T06:39:02.742Z,34.95
2023-02-12T06:43:56.293Z,37.83
2023-02-12T06:46:23.448Z,36.70
2023-02-12T06:48:54.516Z,38.45
2023-02-12T06:51:23.960Z,37.67
2023-02-12T06:53:52.229Z,36.90
2023-02-12T06:56:20.151Z,38.55
2023-02-12T06:58:48.397Z,38.03
2023-02-12T07:01:17.776Z,38.22
2023-02-12T07:03:48.599Z,36.60
2023-02-12T07:06:15.476Z,38.22
2023-02-12T07:08:42.283Z,39.03
2023-02-12T07:11:09.101Z,35.45
2023-02-12T07:13:35.966Z,38.45
2023-02-12T07:16:13.938Z,37.00
2023-02-12T07:18:40.767Z,37.72
2023-02-12T07:21:08.548Z,39.42
2023-02-12T07:23:35.972Z,38.28
2023-02-12T07:26:09.000Z,37.90
2023-02-12T07:28:35.812Z,39.30
2023-02-12T07:31:14.074Z,39.42
2023-02-12T07:33:41.954Z,39.30
2023-02-12T07:36:11.499Z,39.13
2023-02-12T07:41:14.511Z,37.95
2023-02-12T07:43:43.462Z,38.03
2023-02-12T07:46:29.505Z,37.92
2023-02-12T07:48:58.150Z,39.25
2023-02-12T07:51:25.431Z,29.52
2023-02-12T07:53:55.168Z,39.70
2023-02-12T07:56:24.574Z,39.45
2023-02-12T07:58:53.369Z,37.80
2023-02-12T08:01:21.518Z,38.85
2023-02-12T08:03:49.823Z,39.33
2023-02-12T08:06:28.562Z,40.00
2023-02-12T08:08:58.070Z,38.63
2023-02-12T08:11:25.883Z,39.08
2023-02-12T08:13:53.146Z,37.85
2023-02-12T08:16:22.234Z,37.45
2023-02-12T08:18:49.435Z,38.40
2023-02-12T08:21:18.361Z,38.05
2023-02-12T08:23:45.743Z,38.90
2023-02-12T08:26:13.937Z,40.20
2023-02-12T08:28:43.367Z,38.70
2023-02-12T08:31:13.657Z,38.90
2023-02-12T08:33:40.432Z,38.45
2023-02-12T08:36:12.663Z,39.22
2023-02-12T08:38:39.953Z,37.28
2023-02-12T08:41:09.753Z,37.47
2023-02-12T08:43:37.235Z,37.15
2023-02-12T08:46:03.859Z,39.33
2023-02-12T08:48:30.660Z,38.60
2023-02-12T08:51:02.857Z,38.53
2023-02-12T08:53:29.454Z,40.15
2023-02-12T08:55:56.318Z,37.85
2023-02-12T08:58:23.017Z,36.13
2023-02-12T09:00:49.622Z,37.10
2023-02-12T09:03:16.167Z,36.05
2023-02-12T09:05:42.806Z,37.25
2023-02-12T09:08:09.667Z,37.58
2023-02-12T09:10:41.031Z,37.55
2023-02-12T09:13:09.053Z,36.35
2023-02-12T09:15:45.125Z,36.03
2023-02-12T09:18:13.462Z,35.05
2023-02-12T09:20:43.033Z,34.35
2023-02-12T09:25:43.025Z,30.77
2023-02-12T09:28:11.268Z,28.73
2023-02-12T09:30:38.589Z,29.13
2023-02-12T09:33:06.668Z,29.17
2023-02-12T09:35:39.554Z,28.92
2023-02-12T09:38:07.199Z,30.50
2023-02-12T09:40:46.036Z,29.42
2023-02-12T09:43:23.724Z,29.50
2023-02-12T09:46:00.764Z,30.27
2023-02-12T09:48:54.824Z,28.67
2023-02-12T09:51:22.259Z,27.38
2023-02-12T09:53:56.355Z,26.65
2023-02-12T09:56:26.966Z,27.77
2023-02-12T09:59:03.077Z,28.88
2023-02-12T10:01:29.991Z,25.17
2023-02-12T10:03:56.936Z,24.15
2023-02-12T10:06:23.501Z,24.00
2023-02-12T10:09:11.422Z,23.25
2023-02-12T10:11:53.265Z,23.27
2023-02-12T10:14:27.654Z,24.52
2023-02-12T10:17:13.139Z,19.95
2023-02-12T10:20:04.618Z,20.02
2023-02-12T10:22:31.280Z,19.10
2023-02-12T10:25:12.220Z,18.60
2023-02-12T10:27:54.843Z,20.13
2023-02-12T10:30:26.670Z,20.25
2023-02-12T10:33:00.626Z,20.30
2023-02-12T10:35:27.696Z,18.95
2023-02-12T10:38:27.114Z,19.35
2023-02-12T10:40:57.567Z,18.90
2023-02-12T10:43:24.814Z,20.92
2023-02-12T10:45:52.379Z,19.83
2023-02-12T10:48:24.988Z,19.83
2023-02-12T10:51:06.044Z,20.33
2023-02-12T10:53:34.028Z,22.10
2023-02-12T10:56:12.918Z,22.15
2023-02-12T10:58:43.007Z,21.00
2023-02-12T11:01:19.180Z,20.48
2023-02-12T11:03:45.911Z,20.55
2023-02-12T11:06:16.622Z,22.15
2023-02-12T11:08:44.062Z,19.90
2023-02-12T11:11:20.023Z,21.05
2023-02-12T11:13:54.569Z,19.90
2023-02-12T11:16:33.586Z,17.92
2023-02-12T11:19:04.676Z,17.30
2023-02-12T11:21:32.417Z,16.77
2023-02-12T11:24:21.591Z,15.43
2023-02-12T11:26:48.359Z,14.80
2023-02-12T11:29:24.563Z,13.52
2023-02-12T11:32:04.941Z,14.15
2023-02-12T11:34:31.901Z,13.85
2023-02-12T11:36:58.988Z,13.52
2023-02-12T11:39:32.468Z,13.85
2023-02-12T11:42:14.752Z,14.77
2023-02-12T11:44:48.074Z,12.73
2023-02-12T11:47:30.198Z,12.23
2023-02-12T11:50:05.755Z,11.27
2023-02-12T11:52:35.441Z,11.88
2023-02-12T11:55:18.324Z,12.70
2023-02-12T11:57:47.609Z,10.52
2023-02-12T12:00:17.693Z,11.25
2023-02-12T12:03:06.827Z,10.68
2023-02-12T12:05:43.639Z,11.45
2023-02-12T12:08:33.448Z,9.93
2023-02-12T12:11:10.884Z,10.30
2023-02-12T12:13:44.588Z,9.65
2023-02-12T12:16:49.194Z,10.13
2023-02-12T12:19:43.061Z,10.48
2023-02-12T12:22:23.190Z,9.98
2023-02-12T12:24:49.702Z,10.02
2023-02-12T12:27:45.097Z,9.82
2023-02-12T12:30:27.057Z,9.18
2023-02-12T12:32:56.280Z,8.98
2023-02-12T12:35:37.477Z,9.35
2023-02-12T12:38:24.090Z,8.93
2023-02-12T12:41:12.562Z,7.50
2023-02-12T12:43:50.143Z,8.52
2023-02-12T12:46:29.180Z,9.00
2023-02-12T12:49:18.191Z,8.80
2023-02-12T12:52:06.561Z,7.60
2023-02-12T12:54:51.921Z,7.37
2023-02-12T12:57:39.593Z,7.88
2023-02-12T13:00:25.264Z,8.05
2023-02-12T13:02:57.981Z,7.68
2023-02-12T13:05:59.739Z,6.70
2023-02-12T13:08:52.071Z,7.00
2023-02-12T13:11:40.008Z,6.00
2023-02-12T13:14:30.917Z,5.82
2023-02-12T13:17:23.404Z,6.38
2023-02-12T13:20:23.900Z,6.15
2023-02-12T13:22:50.437Z,6.47
2023-02-12T13:25:27.626Z,7.20
2023-02-12T13:27:57.282Z,6.97
2023-02-12T13:33:05.913Z,6.10
2023-02-12T13:35:35.577Z,6.22
2023-02-12T13:38:03.625Z,7.65
2023-02-12T13:40:31.085Z,8.05
2023-02-12T13:43:13.628Z,7.50
2023-02-12T13:45:52.393Z,7.47
2023-02-12T13:48:48.304Z,7.30
2023-02-12T13:51:15.017Z,7.55
2023-02-12T13:53:47.832Z,7.13
2023-02-12T13:56:46.017Z,6.45
2023-02-12T13:59:39.774Z,7.13
2023-02-12T14:02:12.459Z,7.38
2023-02-12T14:04:46.060Z,7.10
2023-02-12T14:07:15.417Z,7.63
2023-02-12T14:09:46.136Z,8.05
2023-02-12T14:12:24.934Z,7.78
2023-02-12T14:15:08.675Z,7.63
2023-02-12T14:17:35.203Z,7.20
2023-02-12T14:20:20.858Z,7.93
2023-02-12T14:22:47.413Z,7.95
2023-02-12T14:25:13.943Z,6.10
2023-02-12T14:27:54.991Z,6.70
2023-02-12T14:30:35.410Z,6.45
2023-02-12T14:33:08.238Z,6.95
2023-02-12T14:35:37.604Z,6.78
2023-02-12T14:38:32.202Z,6.43
2023-02-12T14:41:34.086Z,6.85
2023-02-12T14:44:26.813Z,6.47
2023-02-12T14:46:55.788Z,18.00
2023-02-12T14:49:34.635Z,15.70
2023-02-12T14:52:19.888Z,7.45
2023-02-12T14:54:50.622Z,6.93
2023-02-12T14:57:26.189Z,7.18
2023-02-12T14:59:57.039Z,6.00
2023-02-12T15:02:30.072Z,7.45
2023-02-12T15:05:02.524Z,7.78
2023-02-12T15:07:45.982Z,6.63
2023-02-12T15:10:20.268Z,6.53
2023-02-12T15:12:55.014Z,7.00
2023-02-12T15:15:33.718Z,6.97
2023-02-12T15:18:07.558Z,6.83
2023-02-12T15:20:41.211Z,6.50
2023-02-12T15:23:34.824Z,6.80
2023-02-12T15:26:02.911Z,6.60
2023-02-12T15:28:36.431Z,6.63
2023-02-12T15:31:10.600Z,6.38
2023-02-12T15:33:45.695Z,5.85
2023-02-12T15:36:17.382Z,6.78
2023-02-12T15:38:45.746Z,5.07
2023-02-12T15:41:27.023Z,5.22
2023-02-12T15:43:54.095Z,4.72
2023-02-12T15:46:21.124Z,4.70
2023-02-12T15:48:47.673Z,4.90
2023-02-12T15:51:25.898Z,4.30
2023-02-12T15:53:52.939Z,4.72
2023-02-12T15:56:22.995Z,4.28
2023-02-12T15:58:52.740Z,4.57
2023-02-12T16:01:24.780Z,5.05
2023-02-12T16:04:00.315Z,4.95
2023-02-12T16:06:29.223Z,5.32
2023-02-12T16:09:03.506Z,5.65
2023-02-12T16:11:31.541Z,6.10
2023-02-12T16:14:05.734Z,5.85
2023-02-12T16:16:45.506Z,6.80
2023-02-12T16:19:24.250Z,7.88
2023-02-12T16:22:06.316Z,6.80
2023-02-12T16:24:35.798Z,5.18
2023-02-12T16:27:09.427Z,5.68
2023-02-12T16:29:43.632Z,5.70
2023-02-12T16:32:27.204Z,5.68
2023-02-12T16:35:04.782Z,5.10
2023-02-12T16:37:37.349Z,5.53
2023-02-12T16:40:07.382Z,5.88
2023-02-12T16:42:34.092Z,6.15
2023-02-12T16:45:00.851Z,7.20
2023-02-12T16:47:30.351Z,7.85
2023-02-12T16:49:59.977Z,8.25
2023-02-12T16:52:40.639Z,8.70
2023-02-12T16:55:13.919Z,8.38
2023-02-12T16:57:40.791Z,8.45
2023-02-12T17:00:20.222Z,7.88
2023-02-12T17:05:24.021Z,9.23
2023-02-12T17:07:50.769Z,8.65
2023-02-12T17:10:18.522Z,11.02
2023-02-12T17:12:51.169Z,11.35
2023-02-12T17:15:24.696Z,10.60
2023-02-12T17:17:52.358Z,10.88
2023-02-12T17:20:19.028Z,11.80
2023-02-12T17:22:52.369Z,10.32
2023-02-12T17:25:19.036Z,10.63
2023-02-12T17:27:45.745Z,10.25
2023-02-12T17:30:18.186Z,10.32
2023-02-12T17:32:44.940Z,10.55
2023-02-12T17:35:14.224Z,10.50
2023-02-12T17:37:40.837Z,10.00
2023-02-12T17:40:08.913Z,10.20
2023-02-12T17:42:35.758Z,10.50
2023-02-12T17:45:02.481Z,11.65
2023-02-12T17:47:29.825Z,10.82
2023-02-12T17:49:56.466Z,11.40
2023-02-12T17:52:23.064Z,9.85
2023-02-12T17:54:49.661Z,10.23
2023-02-12T17:57:16.870Z,10.40
2023-02-12T17:59:43.493Z,9.60
2023-02-12T18:02:11.416Z,10.40
2023-02-12T18:04:38.094Z,11.25
2023-02-12T18:07:06.246Z,11.38
2023-02-12T18:09:33.081Z,11.63
2023-02-12T18:11:59.900Z,11.63
2023-02-12T18:14:26.516Z,11.02
2023-02-12T18:16:53.152Z,11.25
2023-02-12T18:19:19.886Z,11.43
2023-02-12T18:21:46.570Z,12.90
2023-02-12T18:24:13.309Z,12.18
2023-02-12T18:26:39.967Z,11.45
2023-02-12T18:29:06.609Z,14.20
2023-02-12T18:31:33.658Z,13.20
2023-02-12T18:34:00.447Z,13.20
2023-02-12T18:36:27.248Z,12.95
2023-02-12T18:38:53.986Z,12.57
2023-02-12T18:41:24.182Z,13.57
2023-02-12T18:43:51.120Z,13.18
2023-02-12T18:46:19.401Z,12.27
2023-02-12T18:48:46.649Z,11.93
2023-02-12T18:51:16.948Z,12.60
2023-02-12T18:53:44.306Z,11.98
2023-02-12T18:56:11.941Z,11.77
2023-02-12T18:58:38.897Z,13.20
2023-02-12T19:01:16.678Z,13.05
2023-02-12T19:03:44.454Z,12.65
2023-02-12T19:06:14.528Z,11.68
2023-02-12T19:08:41.415Z,12.40
2023-02-12T19:11:12.924Z,12.45
2023-02-12T19:13:41.291Z,12.85
2023-02-12T19:16:17.958Z,12.98
2023-02-12T19:18:44.673Z,13.10
2023-02-12T19:21:13.550Z,13.77
2023-02-12T19:23:40.529Z,13.73
2023-02-12T19:26:12.746Z,13.27
2023-02-12T19:28:39.593Z,12.50
2023-02-12T19:31:28.730Z,13.70
2023-02-12T19:34:01.450Z,13.80
2023-02-12T19:36:32.706Z,12.60
2023-02-12T19:38:59.781Z,13.07
2023-02-12T19:41:28.449Z,13.70
2023-02-12T19:43:58.317Z,13.20
2023-02-12T19:46:26.547Z,12.75
2023-02-12T19:49:00.008Z,13.15
2023-02-12T19:51:29.852Z,12.70
2023-02-12T19:56:27.149Z,12.75
2023-02-12T19:58:56.669Z,14.00
2023-02-12T20:01:23.696Z,14.43
2023-02-12T20:03:50.975Z,13.57
2023-02-12T20:06:23.960Z,13.88
2023-02-12T20:08:50.964Z,13.80
2023-02-12T20:11:20.483Z,13.57
2023-02-12T20:13:48.282Z,13.52
2023-02-12T20:16:21.232Z,15.80
2023-02-12T20:18:49.959Z,14.65
2023-02-12T20:21:24.699Z,15.37
2023-02-12T20:23:51.640Z,16.08
2023-02-12T20:26:19.843Z,15.38
2023-02-12T20:28:47.842Z,15.60
2023-02-12T20:31:20.404Z,15.63
2023-02-12T20:33:48.007Z,16.35
2023-02-12T20:36:15.184Z,16.63
2023-02-12T20:38:43.476Z,16.80
2023-02-12T20:41:11.139Z,16.58
2023-02-12T20:43:38.738Z,15.95
2023-02-12T20:46:06.190Z,16.95
2023-02-12T20:48:32.950Z,17.88
2023-02-12T20:51:06.962Z,16.63
2023-02-12T20:53:34.945Z,17.08
2023-02-12T20:56:04.929Z,16.83
2023-02-12T20:58:31.668Z,16.20
2023-02-12T21:01:09.901Z,17.27
2023-02-12T21:03:37.103Z,16.23
2023-02-12T21:06:04.278Z,16.90
2023-02-12T21:08:31.389Z,15.93
2023-02-12T21:11:02.997Z,16.67
2023-02-12T21:13:29.745Z,16.83
2023-02-12T21:16:09.048Z,17.77
2023-02-12T21:18:35.898Z,18.90
2023-02-12T21:21:05.652Z,20.02
2023-02-12T21:23:33.901Z,18.70
2023-02-12T21:26:10.581Z,19.08
2023-02-12T21:28:37.661Z,19.40
2023-02-12T21:31:09.381Z,20.67
2023-02-12T21:33:37.487Z,19.50
2023-02-12T21:36:06.753Z,18.33
2023-02-12T21:38:35.232Z,18.95
2023-02-12T21:41:15.411Z,18.42
2023-02-12T21:43:44.454Z,19.30
2023-02-12T21:46:11.459Z,18.95
2023-02-12T21:48:41.725Z,18.65
2023-02-12T21:51:35.907Z,19.52
2023-02-12T21:54:05.655Z,19.70
2023-02-12T21:56:32.666Z,19.15
2023-02-12T21:58:59.731Z,19.17
2023-02-12T22:01:29.509Z,19.10
2023-02-12T22:03:56.093Z,20.25
2023-02-12T22:06:24.877Z,20.23
2023-02-12T22:08:56.093Z,20.17
2023-02-12T22:11:23.852Z,20.23
2023-02-12T22:13:50.444Z,20.40
2023-02-12T22:16:18.613Z,20.42
2023-02-12T22:18:46.243Z,18.88
2023-02-12T22:21:14.808Z,19.38
2023-02-12T22:23:42.868Z,20.25
2023-02-12T22:26:15.708Z,19.35
2023-02-12T22:28:47.900Z,20.42
2023-02-12T22:31:19.542Z,19.30
2023-02-12T22:33:47.911Z,20.30
2023-02-12T22:36:14.991Z,20.77
2023-02-12T22:38:41.879Z,19.13
2023-02-12T22:41:09.277Z,20.83
2023-02-12T22:43:38.458Z,19.83
2023-02-12T22:46:06.060Z,20.98
2023-02-12T22:48:32.711Z,18.55
2023-02-12T22:50:59.550Z,21.25
2023-02-12T22:53:26.457Z,20.95
2023-02-12T22:55:53.130Z,19.70
2023-02-12T22:58:19.751Z,19.67
2023-02-12T23:00:46.418Z,19.70
2023-02-12T23:03:13.038Z,20.00
2023-02-12T23:05:39.640Z,19.60
2023-02-12T23:08:06.767Z,20.10
2023-02-12T23:10:33.794Z,21.15
2023-02-12T23:13:02.427Z,19.13
2023-02-12T23:15:30.114Z,20.55
2023-02-12T23:17:56.749Z,19.15
2023-02-12T23:20:23.625Z,19.60
2023-02-12T23:22:50.419Z,21.55
2023-02-12T23:25:17.147Z,20.90
2023-02-12T23:27:43.776Z,20.05
2023-02-12T23:30:10.930Z,19.65
2023-02-12T23:32:37.477Z,18.13
2023-02-12T23:35:04.371Z,19.65
2023-02-12T23:37:30.975Z,19.50
2023-02-12T23:39:57.591Z,19.35
2023-02-12T23:42:24.191Z,18.88
2023-02-12T23:44:50.771Z,18.48
2023-02-12T23:47:17.377Z,18.80
2023-02-12T23:49:44.168Z,18.42
2023-02-12T23:52:10.731Z,17.65
2023-02-12T23:54:37.424Z,18.13
2023-02-12T23:57:04.124Z,18.38
2023-02-12T23:59:30.876Z,18.42
